createdAt,value
2018-07-31T00:00:17.922Z,63.70
2018-07-31T00:02:46.253Z,63.90
2018-07-31T00:05:14.572Z,64.40
2018-07-31T00:07:42.898Z,64.20
2018-07-31T00:10:11.224Z,63.30
2018-07-31T00:12:39.537Z,62.90
2018-07-31T00:17:36.731Z,64.80
2018-07-31T00:20:05.177Z,67.00
2018-07-31T00:22:33.609Z,68.40
2018-07-31T00:25:01.961Z,69.40
2018-07-31T00:27:30.326Z,71.80
2018-07-31T00:29:58.648Z,73.80
2018-07-31T00:32:27.025Z,76.50
2018-07-31T00:34:55.366Z,78.20
2018-07-31T00:37:23.899Z,81.00
2018-07-31T00:39:52.171Z,83.10
2018-07-31T00:42:20.504Z,87.00
2018-07-31T00:44:48.817Z,91.60
2018-07-31T00:47:17.212Z,92.50
2018-07-31T00:49:45.548Z,94.50
2018-07-31T00:52:15.429Z,97.80
2018-07-31T00:54:43.812Z,99.30
2018-07-31T00:57:12.167Z,99.90
2018-07-31T00:59:40.502Z,99.90
2018-07-31T01:02:08.947Z,99.90
2018-07-31T01:04:37.293Z,99.90
2018-07-31T01:07:05.742Z,99.90
2018-07-31T01:09:34.092Z,99.90
2018-07-31T01:14:30.492Z,99.90
2018-07-31T01:16:58.828Z,99.90
2018-07-31T01:19:27.113Z,99.90
2018-07-31T01:21:55.387Z,99.90
2018-07-31T01:24:23.732Z,99.90
2018-07-31T01:26:52.033Z,99.90
2018-07-31T01:29:20.361Z,99.90
2018-07-31T01:31:48.716Z,99.90
2018-07-31T01:34:17.022Z,99.90
2018-07-31T01:36:45.336Z,99.90
2018-07-31T01:39:13.712Z,99.90
2018-07-31T01:41:42.229Z,99.90
2018-07-31T01:44:10.553Z,99.90
2018-07-31T01:46:38.902Z,99.90
2018-07-31T01:49:07.230Z,99.90
2018-07-31T01:51:35.552Z,99.90
2018-07-31T01:54:03.882Z,99.90
2018-07-31T01:56:32.188Z,99.90
2018-07-31T01:59:00.518Z,99.90
2018-07-31T02:01:28.859Z,99.90
2018-07-31T02:03:57.147Z,99.90
2018-07-31T02:06:28.538Z,99.90
2018-07-31T02:08:58.041Z,99.90
2018-07-31T02:11:26.429Z,99.90
2018-07-31T02:16:23.493Z,99.90
2018-07-31T02:18:52.027Z,99.90
2018-07-31T02:21:20.400Z,99.90
2018-07-31T02:23:48.711Z,99.90
2018-07-31T02:26:17.008Z,99.90
2018-07-31T02:28:45.389Z,99.90
2018-07-31T02:31:13.701Z,99.90
2018-07-31T02:33:42.017Z,99.90
2018-07-31T02:36:10.384Z,99.90
2018-07-31T02:38:38.797Z,99.90
2018-07-31T02:41:07.256Z,99.90
2018-07-31T02:43:35.559Z,99.90
2018-07-31T02:46:03.956Z,99.90
2018-07-31T02:48:32.245Z,99.90
2018-07-31T02:51:00.679Z,99.90
2018-07-31T02:53:29.017Z,99.90
2018-07-31T02:55:57.339Z,99.90
2018-07-31T02:58:25.631Z,99.90
2018-07-31T03:00:53.999Z,99.90
2018-07-31T03:03:22.294Z,99.90
2018-07-31T03:08:18.804Z,99.90
2018-07-31T03:10:47.016Z,99.90
2018-07-31T03:15:43.425Z,99.90
2018-07-31T03:18:11.718Z,99.90
2018-07-31T03:20:40.048Z,99.90
2018-07-31T03:23:08.348Z,99.90
2018-07-31T03:25:36.665Z,99.90
2018-07-31T03:28:05.042Z,99.90
2018-07-31T03:30:33.367Z,99.90
2018-07-31T03:33:01.795Z,99.90
2018-07-31T03:35:30.133Z,99.90
2018-07-31T03:37:58.465Z,99.90
2018-07-31T03:40:26.791Z,99.90
2018-07-31T03:42:55.117Z,99.90
2018-07-31T03:45:23.464Z,99.90
2018-07-31T03:47:51.762Z,99.90
2018-07-31T03:50:20.095Z,99.90
2018-07-31T03:52:48.389Z,99.90
2018-07-31T03:55:16.682Z,99.90
2018-07-31T03:57:45.001Z,99.90
2018-07-31T04:02:41.390Z,99.90
2018-07-31T04:05:09.694Z,99.90
2018-07-31T04:07:38.049Z,99.90
2018-07-31T04:10:06.407Z,99.90
2018-07-31T04:12:34.733Z,99.90
2018-07-31T04:15:03.126Z,99.90
2018-07-31T04:17:31.476Z,99.90
2018-07-31T04:19:59.797Z,99.90
2018-07-31T04:22:28.144Z,99.90
2018-07-31T04:24:56.441Z,99.90
2018-07-31T04:27:24.770Z,99.90
2018-07-31T04:29:53.090Z,99.90
2018-07-31T04:32:21.404Z,99.90
2018-07-31T04:34:49.771Z,99.90
2018-07-31T04:42:33.766Z,99.90
2018-07-31T04:45:02.133Z,99.90
2018-07-31T04:47:30.380Z,99.90
2018-07-31T04:49:58.785Z,99.90
2018-07-31T04:52:27.104Z,99.90
2018-07-31T04:54:55.513Z,99.90
2018-07-31T04:57:23.871Z,99.90
2018-07-31T04:59:52.194Z,99.90
2018-07-31T05:04:48.688Z,99.90
2018-07-31T05:07:17.046Z,99.90
2018-07-31T05:09:45.331Z,99.90
2018-07-31T05:12:13.768Z,99.90
2018-07-31T05:14:42.084Z,99.90
2018-07-31T05:17:10.388Z,99.90
2018-07-31T05:19:38.720Z,99.90
2018-07-31T05:27:10.036Z,99.90
2018-07-31T05:32:06.650Z,99.90
2018-07-31T05:34:35.015Z,99.90
2018-07-31T05:37:03.319Z,99.90
2018-07-31T05:39:31.698Z,99.90
2018-07-31T05:42:00.012Z,99.90
2018-07-31T05:44:28.340Z,99.90
2018-07-31T05:46:56.669Z,99.90
2018-07-31T05:49:25.036Z,99.90
2018-07-31T05:51:53.486Z,99.90
2018-07-31T05:54:21.893Z,99.90
2018-07-31T05:56:50.286Z,99.90
2018-07-31T05:59:18.604Z,99.90
2018-07-31T06:01:46.916Z,99.90
2018-07-31T06:04:15.305Z,99.90
2018-07-31T06:06:43.632Z,99.90
2018-07-31T06:09:11.912Z,99.90
2018-07-31T06:11:40.320Z,99.90
2018-07-31T06:14:09.044Z,99.90
2018-07-31T06:16:37.783Z,99.90
2018-07-31T06:19:06.265Z,99.90
2018-07-31T06:24:02.770Z,99.90
2018-07-31T06:26:31.263Z,99.90
2018-07-31T06:28:59.584Z,99.90
2018-07-31T06:31:29.323Z,99.90
2018-07-31T06:33:56.284Z,99.70
2018-07-31T06:36:24.661Z,98.80
2018-07-31T06:38:53.131Z,98.30
2018-07-31T06:41:21.498Z,98.30
2018-07-31T06:43:49.853Z,97.90
2018-07-31T06:48:46.278Z,97.60
2018-07-31T06:51:14.636Z,98.20
2018-07-31T06:53:42.941Z,97.90
2018-07-31T06:56:11.312Z,97.60
2018-07-31T06:58:39.641Z,97.20
2018-07-31T07:01:08.085Z,96.60
2018-07-31T07:03:36.459Z,96.80
2018-07-31T07:06:04.853Z,96.50
2018-07-31T07:08:33.150Z,95.20
2018-07-31T07:11:01.501Z,90.80
2018-07-31T07:13:29.951Z,91.40
2018-07-31T07:15:58.344Z,90.70
2018-07-31T07:18:26.692Z,90.40
2018-07-31T07:20:55.025Z,88.50
2018-07-31T07:23:23.329Z,84.90
2018-07-31T07:25:51.757Z,85.00
2018-07-31T07:28:20.093Z,83.60
2018-07-31T07:30:48.450Z,83.50
2018-07-31T07:33:16.965Z,84.00
2018-07-31T07:35:45.421Z,83.60
2018-07-31T07:38:13.757Z,83.10
2018-07-31T07:40:42.166Z,83.70
2018-07-31T07:43:10.473Z,83.80
2018-07-31T07:45:39.678Z,79.20
2018-07-31T07:48:08.074Z,82.00
2018-07-31T07:50:36.739Z,79.70
2018-07-31T07:53:05.062Z,80.40
2018-07-31T07:55:33.372Z,79.10
2018-07-31T08:00:29.780Z,80.20
2018-07-31T08:02:58.170Z,79.50
2018-07-31T08:05:26.549Z,77.00
2018-07-31T08:07:54.904Z,73.50
2018-07-31T08:10:23.288Z,76.90
2018-07-31T08:12:51.614Z,76.60
2018-07-31T08:15:19.924Z,77.50
2018-07-31T08:17:48.298Z,78.40
2018-07-31T08:20:16.633Z,77.40
2018-07-31T08:22:45.002Z,77.40
2018-07-31T08:25:13.513Z,75.70
2018-07-31T08:27:41.869Z,76.40
2018-07-31T08:30:10.129Z,75.00
2018-07-31T08:32:38.492Z,74.40
2018-07-31T08:35:06.889Z,75.20
2018-07-31T08:37:35.279Z,75.20
2018-07-31T08:40:03.649Z,74.30
2018-07-31T08:42:31.995Z,73.30
2018-07-31T08:45:00.336Z,72.10
2018-07-31T08:47:28.710Z,70.30
2018-07-31T08:49:57.078Z,70.60
2018-07-31T08:52:25.416Z,72.00
2018-07-31T08:54:53.976Z,72.70
2018-07-31T08:57:22.331Z,72.10
2018-07-31T08:59:50.960Z,71.30
2018-07-31T09:02:19.321Z,70.80
2018-07-31T09:07:15.785Z,69.20
2018-07-31T09:09:44.123Z,69.60
2018-07-31T09:12:12.442Z,68.00
2018-07-31T09:14:40.817Z,68.50
2018-07-31T09:17:09.603Z,68.60
2018-07-31T09:19:37.941Z,67.20
2018-07-31T09:22:06.286Z,65.10
2018-07-31T09:24:34.798Z,65.10
2018-07-31T09:27:03.014Z,66.10
2018-07-31T09:29:31.379Z,64.00
2018-07-31T09:34:27.892Z,65.00
2018-07-31T09:36:56.311Z,63.00
2018-07-31T09:39:24.672Z,62.90
2018-07-31T09:41:53.059Z,60.70
2018-07-31T09:44:21.410Z,62.50
2018-07-31T09:46:49.781Z,61.00
2018-07-31T09:49:18.117Z,62.20
2018-07-31T09:51:46.516Z,59.90
2018-07-31T09:56:45.081Z,62.50
2018-07-31T10:01:41.583Z,60.40
2018-07-31T10:04:09.937Z,59.10
2018-07-31T10:06:38.273Z,58.80
2018-07-31T10:09:08.691Z,59.00
2018-07-31T10:11:37.034Z,60.00
2018-07-31T10:14:05.422Z,61.20
2018-07-31T10:16:33.845Z,58.50
2018-07-31T10:19:02.176Z,59.50
2018-07-31T10:21:30.587Z,59.60
2018-07-31T10:23:59.042Z,59.90
2018-07-31T10:26:27.378Z,59.00
2018-07-31T10:28:55.976Z,57.20
2018-07-31T10:31:24.389Z,57.30
2018-07-31T10:33:52.679Z,58.90
2018-07-31T10:36:21.065Z,58.90
2018-07-31T10:38:49.484Z,58.40
2018-07-31T10:41:17.824Z,58.40
2018-07-31T10:43:46.225Z,57.40
2018-07-31T10:46:14.593Z,57.50
2018-07-31T10:48:42.944Z,57.60
2018-07-31T10:51:11.311Z,56.50
2018-07-31T10:53:39.660Z,56.00
2018-07-31T10:56:08.042Z,56.20
2018-07-31T11:01:04.486Z,56.60
2018-07-31T11:06:00.938Z,57.60
2018-07-31T11:08:32.392Z,57.50
2018-07-31T11:11:00.778Z,57.10
2018-07-31T11:13:29.106Z,57.50
2018-07-31T11:15:57.483Z,57.20
2018-07-31T11:18:25.830Z,56.80
2018-07-31T11:20:54.257Z,55.80
2018-07-31T11:25:50.690Z,54.80
2018-07-31T11:28:22.043Z,54.60
2018-07-31T11:30:50.439Z,54.30
2018-07-31T11:33:18.816Z,53.80
2018-07-31T11:35:47.170Z,53.60
2018-07-31T11:38:15.573Z,53.50
2018-07-31T11:40:43.942Z,53.10
2018-07-31T11:43:12.296Z,52.50
2018-07-31T11:45:40.668Z,51.40
2018-07-31T11:48:09.023Z,50.00
2018-07-31T11:50:37.452Z,51.20
2018-07-31T11:53:05.835Z,51.30
2018-07-31T11:55:34.192Z,52.00
2018-07-31T11:58:02.496Z,52.20
2018-07-31T12:00:30.844Z,50.00
2018-07-31T12:02:59.182Z,50.60
2018-07-31T12:05:27.519Z,50.40
2018-07-31T12:07:55.953Z,50.00
2018-07-31T12:10:24.359Z,50.30
2018-07-31T12:12:52.710Z,48.80
2018-07-31T12:17:49.202Z,49.70
2018-07-31T12:20:17.546Z,49.80
2018-07-31T12:22:45.902Z,48.60
2018-07-31T12:25:14.260Z,46.50
2018-07-31T12:27:42.611Z,45.70
2018-07-31T12:30:11.427Z,45.80
2018-07-31T12:32:40.632Z,46.20
2018-07-31T12:35:09.323Z,46.40
2018-07-31T12:37:37.725Z,46.20
2018-07-31T12:40:06.798Z,46.20
2018-07-31T12:42:35.165Z,47.10
2018-07-31T12:45:03.548Z,46.50
2018-07-31T12:47:32.040Z,46.40
2018-07-31T12:50:00.422Z,46.60
2018-07-31T12:52:28.816Z,43.50
2018-07-31T12:57:25.205Z,45.60
2018-07-31T12:59:53.609Z,46.00
2018-07-31T13:02:21.883Z,47.00
2018-07-31T13:04:50.769Z,48.30
2018-07-31T13:07:19.171Z,49.40
2018-07-31T13:09:47.544Z,49.50
2018-07-31T13:12:18.395Z,49.90
2018-07-31T13:14:46.773Z,50.30
2018-07-31T13:17:15.121Z,56.70
2018-07-31T13:19:43.456Z,56.30
2018-07-31T13:22:13.097Z,50.80
2018-07-31T13:24:40.147Z,48.50
2018-07-31T13:27:08.568Z,51.30
2018-07-31T13:29:36.980Z,51.90
2018-07-31T13:32:05.357Z,47.50
2018-07-31T13:34:33.696Z,44.50
2018-07-31T13:37:02.141Z,42.90
2018-07-31T13:39:30.585Z,48.50
2018-07-31T13:41:58.980Z,52.30
2018-07-31T13:44:27.364Z,54.50
2018-07-31T13:46:55.731Z,51.80
2018-07-31T13:49:24.108Z,47.90
2018-07-31T13:51:52.457Z,45.90
2018-07-31T13:54:20.805Z,42.70
2018-07-31T13:56:49.180Z,39.70
2018-07-31T13:59:17.572Z,38.50
2018-07-31T14:01:45.902Z,38.00
2018-07-31T14:06:42.556Z,36.50
2018-07-31T14:09:11.519Z,36.60
2018-07-31T14:11:40.005Z,38.20
2018-07-31T14:14:08.443Z,38.20
2018-07-31T14:16:36.826Z,38.10
2018-07-31T14:19:08.044Z,38.20
2018-07-31T14:21:36.405Z,41.20
2018-07-31T14:24:04.768Z,43.60
2018-07-31T14:26:33.124Z,43.80
2018-07-31T14:29:01.642Z,43.10
2018-07-31T14:31:30.093Z,39.80
2018-07-31T14:33:58.453Z,36.70
2018-07-31T14:36:27.129Z,34.30
2018-07-31T14:38:55.515Z,35.00
2018-07-31T14:41:23.883Z,34.30
2018-07-31T14:43:52.382Z,33.90
2018-07-31T14:46:20.768Z,33.30
2018-07-31T14:48:49.057Z,33.70
2018-07-31T14:51:17.456Z,33.80
2018-07-31T14:53:45.806Z,33.60
2018-07-31T14:56:14.196Z,34.30
2018-07-31T14:58:42.594Z,33.60
2018-07-31T15:01:10.973Z,34.40
2018-07-31T15:03:39.317Z,33.20
2018-07-31T15:06:07.707Z,30.30
2018-07-31T15:08:39.956Z,28.40
2018-07-31T15:11:09.644Z,30.00
2018-07-31T15:16:06.033Z,31.90
2018-07-31T15:18:34.447Z,32.10
2018-07-31T15:21:02.894Z,31.00
2018-07-31T15:23:31.361Z,31.10
2018-07-31T15:25:59.651Z,31.80
2018-07-31T15:28:28.020Z,31.70
2018-07-31T15:30:56.700Z,31.80
2018-07-31T15:33:26.507Z,32.90
2018-07-31T15:35:55.563Z,34.50
2018-07-31T15:38:23.917Z,34.80
2018-07-31T15:40:52.323Z,35.40
2018-07-31T15:43:20.703Z,36.30
2018-07-31T15:45:49.025Z,32.60
2018-07-31T15:48:17.401Z,33.40
2018-07-31T15:50:45.812Z,34.60
2018-07-31T15:53:14.102Z,35.40
2018-07-31T15:55:42.412Z,35.30
2018-07-31T15:58:10.810Z,36.00
2018-07-31T16:00:39.134Z,34.80
2018-07-31T16:03:07.521Z,34.00
2018-07-31T16:05:35.927Z,34.30
2018-07-31T16:08:04.233Z,33.50
2018-07-31T16:10:32.560Z,34.20
2018-07-31T16:13:01.004Z,34.30
2018-07-31T16:15:29.384Z,34.00
2018-07-31T16:17:57.768Z,34.20
2018-07-31T16:20:26.167Z,33.90
2018-07-31T16:22:54.582Z,34.10
2018-07-31T16:25:22.878Z,34.60
2018-07-31T16:27:51.290Z,35.50
2018-07-31T16:30:19.643Z,35.30
2018-07-31T16:32:47.989Z,35.00
2018-07-31T16:35:16.365Z,34.20
2018-07-31T16:37:44.697Z,34.30
2018-07-31T16:40:13.081Z,35.20
2018-07-31T16:42:41.462Z,35.20
2018-07-31T16:45:09.809Z,36.10
2018-07-31T16:47:38.120Z,35.50
2018-07-31T16:50:06.544Z,36.90
2018-07-31T16:52:34.899Z,35.60
2018-07-31T16:55:03.250Z,34.90
2018-07-31T16:57:31.603Z,35.30
2018-07-31T16:59:59.935Z,35.00
2018-07-31T17:02:28.307Z,35.30
2018-07-31T17:04:56.681Z,35.60
2018-07-31T17:07:25.030Z,35.70
2018-07-31T17:09:53.384Z,34.10
2018-07-31T17:12:21.716Z,33.70
2018-07-31T17:14:50.031Z,34.50
2018-07-31T17:17:18.458Z,34.40
2018-07-31T17:19:46.831Z,35.30
2018-07-31T17:22:15.157Z,36.40
2018-07-31T17:24:43.509Z,35.00
2018-07-31T17:27:11.879Z,35.20
2018-07-31T17:29:40.240Z,35.20
2018-07-31T17:32:08.650Z,34.90
2018-07-31T17:34:37.017Z,36.30
2018-07-31T17:37:05.431Z,36.70
2018-07-31T17:39:33.761Z,38.30
2018-07-31T17:42:02.543Z,38.80
2018-07-31T17:44:35.658Z,39.90
2018-07-31T17:47:05.712Z,41.10
2018-07-31T17:49:36.969Z,41.80
2018-07-31T17:52:08.608Z,41.90
2018-07-31T17:54:39.096Z,42.10
2018-07-31T17:57:09.778Z,42.50
2018-07-31T17:59:40.228Z,40.90
2018-07-31T18:02:10.217Z,41.70
2018-07-31T18:04:41.368Z,40.90
2018-07-31T18:07:12.040Z,42.10
2018-07-31T18:09:42.786Z,42.00
2018-07-31T18:12:12.231Z,42.20
2018-07-31T18:14:42.445Z,42.70
2018-07-31T18:17:12.197Z,43.30
2018-07-31T18:19:44.567Z,43.70
2018-07-31T18:22:14.965Z,44.50
2018-07-31T18:24:45.861Z,44.90
2018-07-31T18:27:16.746Z,43.20
2018-07-31T18:29:49.268Z,44.20
2018-07-31T18:32:19.695Z,44.90
2018-07-31T18:34:52.999Z,45.50
2018-07-31T18:37:27.320Z,45.50
2018-07-31T18:39:57.841Z,45.20
2018-07-31T18:42:31.125Z,45.50
2018-07-31T18:45:01.012Z,46.10
2018-07-31T18:47:31.261Z,44.90
2018-07-31T18:50:01.911Z,45.70
2018-07-31T18:52:35.973Z,46.30
2018-07-31T18:55:10.088Z,46.50
2018-07-31T18:57:40.644Z,46.70
2018-07-31T19:00:11.872Z,47.00
2018-07-31T19:02:42.241Z,47.40
2018-07-31T19:05:12.783Z,47.30
2018-07-31T19:07:45.890Z,46.80
2018-07-31T19:10:16.656Z,47.40
2018-07-31T19:12:50.257Z,48.00
2018-07-31T19:17:54.663Z,49.20
2018-07-31T19:20:26.128Z,49.40
2018-07-31T19:22:57.501Z,49.00
2018-07-31T19:25:28.637Z,49.40
2018-07-31T19:27:59.234Z,50.10
2018-07-31T19:30:29.374Z,50.40
2018-07-31T19:33:00.401Z,50.80
2018-07-31T19:35:31.514Z,51.00
2018-07-31T19:38:03.796Z,51.30
2018-07-31T19:40:34.710Z,50.90
2018-07-31T19:43:05.380Z,50.60
2018-07-31T19:45:35.879Z,51.50
2018-07-31T19:48:08.624Z,52.10
2018-07-31T19:50:38.636Z,52.60
2018-07-31T19:53:09.131Z,52.80
2018-07-31T19:55:39.410Z,53.10
2018-07-31T19:58:10.168Z,53.40
2018-07-31T20:00:44.324Z,53.00
2018-07-31T20:03:14.497Z,53.40
2018-07-31T20:05:46.181Z,53.80
2018-07-31T20:08:16.510Z,53.80
2018-07-31T20:10:47.989Z,54.00
2018-07-31T20:13:18.552Z,54.50
2018-07-31T20:15:49.999Z,55.40
2018-07-31T20:20:54.123Z,55.40
2018-07-31T20:23:25.756Z,55.90
2018-07-31T20:25:55.621Z,56.30
2018-07-31T20:28:25.757Z,56.30
2018-07-31T20:30:55.799Z,56.40
2018-07-31T20:33:26.218Z,56.60
2018-07-31T20:35:57.054Z,56.10
2018-07-31T20:38:27.385Z,56.30
2018-07-31T20:40:58.793Z,57.10
2018-07-31T20:43:30.261Z,57.70
2018-07-31T20:46:01.520Z,57.90
2018-07-31T20:48:33.164Z,57.50
2018-07-31T20:51:04.435Z,57.20
2018-07-31T20:53:36.150Z,57.90
2018-07-31T20:56:08.102Z,57.70
2018-07-31T21:01:09.976Z,58.60
2018-07-31T21:03:41.497Z,58.80
2018-07-31T21:06:13.308Z,59.10
2018-07-31T21:08:41.353Z,59.40
2018-07-31T21:11:09.749Z,59.50
2018-07-31T21:13:38.214Z,59.80
2018-07-31T21:16:06.797Z,60.00
2018-07-31T21:18:35.251Z,60.50
2018-07-31T21:21:03.650Z,61.00
2018-07-31T21:23:32.046Z,61.70
2018-07-31T21:26:00.398Z,61.90
2018-07-31T21:28:28.787Z,62.10
2018-07-31T21:30:57.193Z,62.40
2018-07-31T21:33:25.759Z,62.80
2018-07-31T21:35:54.492Z,62.90
2018-07-31T21:38:40.500Z,63.20
2018-07-31T21:41:18.577Z,63.30
2018-07-31T21:46:34.981Z,64.00
2018-07-31T21:49:03.346Z,64.10
2018-07-31T21:54:00.087Z,64.80
2018-07-31T21:56:28.511Z,65.60
2018-07-31T21:58:56.922Z,65.10
2018-07-31T22:01:25.392Z,65.50
2018-07-31T22:03:53.831Z,66.10
2018-07-31T22:06:22.447Z,66.10
2018-07-31T22:08:50.737Z,66.60
2018-07-31T22:11:19.076Z,66.90
2018-07-31T22:13:47.425Z,67.30
2018-07-31T22:16:15.722Z,67.90
2018-07-31T22:21:12.226Z,68.80
2018-07-31T22:23:40.549Z,69.40
2018-07-31T22:28:37.080Z,70.80
2018-07-31T22:31:05.503Z,72.20
2018-07-31T22:33:33.896Z,72.70
2018-07-31T22:36:02.273Z,73.40
2018-07-31T22:38:30.599Z,73.10
2018-07-31T22:40:59.003Z,72.90
2018-07-31T22:43:27.402Z,72.90
2018-07-31T22:45:55.640Z,73.60
2018-07-31T22:48:24.012Z,73.20
2018-07-31T22:50:52.417Z,73.70
2018-07-31T22:53:20.737Z,73.90
2018-07-31T22:55:49.114Z,72.50
2018-07-31T22:58:17.413Z,72.50
2018-07-31T23:00:45.883Z,72.70
2018-07-31T23:03:14.273Z,73.70
2018-07-31T23:05:42.638Z,73.80
2018-07-31T23:08:10.951Z,72.90
2018-07-31T23:10:39.318Z,72.70
2018-07-31T23:13:07.708Z,72.00
2018-07-31T23:15:36.054Z,72.90
2018-07-31T23:18:11.732Z,73.80
2018-07-31T23:20:40.075Z,74.00
2018-07-31T23:23:08.406Z,74.20
2018-07-31T23:25:36.742Z,74.90
2018-07-31T23:28:05.076Z,75.60
2018-07-31T23:30:33.403Z,76.10
2018-07-31T23:33:01.761Z,76.80
2018-07-31T23:35:30.109Z,76.70
2018-07-31T23:37:58.416Z,76.70
2018-07-31T23:40:26.788Z,76.60
2018-07-31T23:42:55.074Z,76.80
2018-07-31T23:45:23.403Z,77.50
2018-07-31T23:47:51.786Z,78.50
2018-07-31T23:50:20.109Z,78.80
2018-07-31T23:52:48.447Z,78.20
2018-07-31T23:57:44.891Z,79.10
